Time;durP1;ratioP1;P1;durP2;ratioP2;P2;SDS_P1;SDS_P2;PMS_P1;PMS_P2;Temp;Humidity;BMP_temperature;BMP_pressure;BME280_temperature;BME280_humidity;BME280_pressure;Samples;Min_cycle;Max_cycle;Signal;HPM_P1;HPM_P2
2023/05/17 00:00:01;;;;;;;7.97;4.50;;;;;;;;;;5074503;28;20494;-77
2023/05/17 00:02:27;;;;;;;9.10;4.88;;;;;;;;;;5067877;28;20040;-77
2023/05/17 00:04:53;;;;;;;7.18;5.30;;;;;;;;;;5065282;28;20052;-78
2023/05/17 00:07:19;;;;;;;11.52;5.35;;;;;;;;;;5070894;28;20482;-78
2023/05/17 00:09:45;;;;;;;9.68;4.90;;;;;;;;;;5059786;28;20056;-75
2023/05/17 00:12:11;;;;;;;7.68;5.07;;;;;;;;;;5069394;28;20029;-78
2023/05/17 00:14:37;;;;;;;10.13;5.45;;;;;;;;;;5073541;28;20052;-77
2023/05/17 00:17:03;;;;;;;8.70;5.25;;;;;;;;;;5065754;28;20024;-78
2023/05/17 00:19:29;;;;;;;6.10;4.53;;;;;;;;;;5070971;28;20075;-78
2023/05/17 00:21:56;;;;;;;8.73;4.60;;;;;;;;;;5074752;28;20063;-77
2023/05/17 00:24:23;;;;;;;6.32;4.45;;;;;;;;;;5071758;28;20181;-79
2023/05/17 00:26:49;;;;;;;25.83;5.68;;;;;;;;;;5061329;28;20028;-78
2023/05/17 00:29:15;;;;;;;8.70;5.00;;;;;;;;;;5063357;28;20028;-78
2023/05/17 00:31:41;;;;;;;9.05;5.22;;;;;;;;;;5061820;28;20036;-77
2023/05/17 00:34:07;;;;;;;7.53;5.40;;;;;;;;;;5064185;28;20029;-77
2023/05/17 00:36:33;;;;;;;7.63;4.38;;;;;;;;;;5061613;28;20092;-77
2023/05/17 00:38:59;;;;;;;11.15;5.22;;;;;;;;;;5065483;28;20083;-77
2023/05/17 00:41:26;;;;;;;10.02;4.72;;;;;;;;;;5073434;28;20135;-77
2023/05/17 00:43:52;;;;;;;9.02;5.05;;;;;;;;;;5071842;28;20032;-77
2023/05/17 00:46:18;;;;;;;9.20;4.75;;;;;;;;;;5073340;28;20032;-77
2023/05/17 00:48:44;;;;;;;9.45;5.38;;;;;;;;;;5068444;28;20034;-78
2023/05/17 00:51:11;;;;;;;15.32;4.88;;;;;;;;;;5062035;28;20029;-78
2023/05/17 00:53:41;;;;;;;8.30;5.30;;;;;;;;;;5072517;28;20035;-77
2023/05/17 00:56:08;;;;;;;7.65;4.70;;;;;;;;;;5088340;28;20082;-77
2023/05/17 00:58:35;;;;;;;9.93;5.65;;;;;;;;;;5075384;28;20020;-77
2023/05/17 01:01:03;;;;;;;8.25;4.65;;;;;;;;;;5079162;28;20070;-77
2023/05/17 01:03:29;;;;;;;8.30;5.40;;;;;;;;;;5073152;28;20020;-77
2023/05/17 01:05:55;;;;;;;7.35;4.68;;;;;;;;;;5069625;28;20024;-79
2023/05/17 01:08:24;;;;;;;6.82;5.18;;;;;;;;;;5067215;28;20066;-78
2023/05/17 01:10:57;;;;;;;10.45;5.43;;;;;;;;;;5069100;28;20481;-77
2023/05/17 01:13:55;;;;;;;9.38;5.20;;;;;;;;;;5070693;28;20045;-77
2023/05/17 01:16:27;;;;;;;12.68;5.22;;;;;;;;;;5017716;28;20039;-77
2023/05/17 01:19:02;;;;;;;7.43;5.30;;;;;;;;;;5071618;28;20753;-77
2023/05/17 01:21:28;;;;;;;;;;;;;;;;;;5072859;28;20060;-77
2023/05/17 01:23:55;;;;;;;;;;;;;;;;;;5070462;28;19931;-78
2023/05/17 01:26:27;;;;;;;8.95;4.95;;;;;;;;;;5068493;28;20010;-77
2023/05/17 01:28:56;;;;;;;11.13;6.15;;;;;;;;;;5085294;28;20540;-77
2023/05/17 01:31:23;;;;;;;8.02;4.68;;;;;;;;;;5065123;28;20021;-77
2023/05/17 01:33:49;;;;;;;10.07;5.22;;;;;;;;;;5075346;28;20052;-77
2023/05/17 01:36:15;;;;;;;10.07;5.22;;;;;;;;;;5070385;28;20031;-77
2023/05/17 01:38:46;;;;;;;11.27;5.47;;;;;;;;;;5068876;28;20667;-77
2023/05/17 01:41:12;;;;;;;9.63;5.35;;;;;;;;;;5075709;28;20154;-77
2023/05/17 01:43:54;;;;;;;8.65;5.10;;;;;;;;;;5090685;28;20028;-78
2023/05/17 01:46:23;;;;;;;9.20;5.82;;;;;;;;;;5083823;28;20498;-77
2023/05/17 01:49:02;;;;;;;11.02;5.50;;;;;;;;;;5072104;28;20055;-77
2023/05/17 01:51:30;;;;;;;13.82;5.25;;;;;;;;;;5084434;28;20021;-78
2023/05/17 01:53:57;;;;;;;9.88;5.20;;;;;;;;;;5065992;28;20036;-77
2023/05/17 01:56:27;;;;;;;10.00;5.38;;;;;;;;;;5054872;28;20025;-76
2023/05/17 01:58:54;;;;;;;9.45;5.78;;;;;;;;;;5068167;28;20475;-77
2023/05/17 02:01:21;;;;;;;9.07;5.93;;;;;;;;;;5069059;28;20054;-77
2023/05/17 02:03:48;;;;;;;9.75;5.30;;;;;;;;;;5068607;28;20040;-76
2023/05/17 02:06:14;;;;;;;8.45;5.47;;;;;;;;;;5069066;28;20028;-76
2023/05/17 02:08:40;;;;;;;8.85;5.43;;;;;;;;;;5073525;28;20103;-77
2023/05/17 02:11:06;;;;;;;11.32;6.65;;;;;;;;;;5064524;28;20138;-77
2023/05/17 02:13:32;;;;;;;7.82;5.45;;;;;;;;;;5068236;28;20019;-78
2023/05/17 02:16:02;;;;;;;14.50;6.05;;;;;;;;;;5058579;28;20509;-77
2023/05/17 02:18:28;;;;;;;10.95;5.07;;;;;;;;;;5064208;28;20017;-76
2023/05/17 02:20:55;;;;;;;8.68;6.07;;;;;;;;;;5069540;28;20023;-78
2023/05/17 02:23:21;;;;;;;8.63;5.22;;;;;;;;;;5070732;28;20041;-77
2023/05/17 02:25:47;;;;;;;12.45;5.95;;;;;;;;;;5070235;28;20033;-76
2023/05/17 02:28:13;;;;;;;9.73;5.63;;;;;;;;;;5068052;28;20432;-76
2023/05/17 02:30:43;;;;;;;8.48;5.45;;;;;;;;;;5068523;28;20024;-77
2023/05/17 02:33:09;;;;;;;11.70;5.93;;;;;;;;;;5069392;28;20378;-76
2023/05/17 02:35:35;;;;;;;11.55;5.45;;;;;;;;;;5068617;28;20376;-77
2023/05/17 02:38:01;;;;;;;12.27;6.10;;;;;;;;;;5058978;28;20112;-77
2023/05/17 02:40:27;;;;;;;8.75;5.35;;;;;;;;;;5067861;28;20394;-77
2023/05/17 02:42:53;;;;;;;7.90;5.65;;;;;;;;;;5063567;28;20214;-77
2023/05/17 02:45:19;;;;;;;13.38;5.90;;;;;;;;;;5066192;28;20371;-77
2023/05/17 02:47:45;;;;;;;9.65;5.50;;;;;;;;;;5065931;28;20028;-77
2023/05/17 02:50:11;;;;;;;10.95;5.28;;;;;;;;;;5069776;28;20218;-77
2023/05/17 02:52:37;;;;;;;9.38;5.35;;;;;;;;;;5066106;28;20505;-77
2023/05/17 02:55:04;;;;;;;8.32;5.20;;;;;;;;;;5065151;28;20287;-76
2023/05/17 02:57:30;;;;;;;10.43;5.53;;;;;;;;;;5059680;28;20653;-77
2023/05/17 02:59:56;;;;;;;10.18;5.25;;;;;;;;;;5068863;28;20081;-77
2023/05/17 03:02:22;;;;;;;7.95;4.95;;;;;;;;;;5059862;28;20032;-76
2023/05/17 03:04:48;;;;;;;10.88;6.05;;;;;;;;;;5068967;28;20364;-76
2023/05/17 03:07:14;;;;;;;9.75;5.70;;;;;;;;;;5073931;28;20433;-77
2023/05/17 03:09:41;;;;;;;11.75;6.22;;;;;;;;;;5063358;28;20051;-77
2023/05/17 03:12:08;;;;;;;8.45;5.57;;;;;;;;;;5067625;28;20478;-76
2023/05/17 03:14:34;;;;;;;9.02;5.63;;;;;;;;;;5061994;28;20074;-77
2023/05/17 03:17:01;;;;;;;10.05;5.50;;;;;;;;;;5082384;28;20033;-76
2023/05/17 03:19:27;;;;;;;12.25;7.15;;;;;;;;;;5064170;28;20057;-77
2023/05/17 03:21:53;;;;;;;8.80;5.72;;;;;;;;;;5068037;28;20090;-77
2023/05/17 03:24:20;;;;;;;12.85;6.28;;;;;;;;;;5066216;28;20036;-77
2023/05/17 03:26:48;;;;;;;12.60;6.10;;;;;;;;;;5060996;28;20032;-76
2023/05/17 03:29:15;;;;;;;12.48;6.00;;;;;;;;;;5082873;28;20108;-77
2023/05/17 03:31:42;;;;;;;9.63;6.15;;;;;;;;;;5061283;28;20024;-76
2023/05/17 03:34:08;;;;;;;12.38;6.72;;;;;;;;;;5061937;28;20453;-77
2023/05/17 03:36:34;;;;;;;9.40;5.50;;;;;;;;;;5067598;28;20032;-77
2023/05/17 03:39:01;;;;;;;9.15;6.50;;;;;;;;;;5066243;28;20042;-76
2023/05/17 03:41:27;;;;;;;12.27;6.25;;;;;;;;;;5065810;28;20034;-77
2023/05/17 03:43:53;;;;;;;11.80;5.97;;;;;;;;;;5063475;28;20082;-76
2023/05/17 03:46:19;;;;;;;9.05;5.85;;;;;;;;;;5063701;28;20029;-76
2023/05/17 03:48:45;;;;;;;10.23;5.78;;;;;;;;;;5066287;28;20545;-77
2023/05/17 03:51:11;;;;;;;9.50;5.90;;;;;;;;;;5057205;28;20104;-76
2023/05/17 03:53:41;;;;;;;10.52;6.93;;;;;;;;;;5088399;28;20032;-77
2023/05/17 03:56:08;;;;;;;9.70;5.60;;;;;;;;;;5062200;28;20072;-76
2023/05/17 03:58:34;;;;;;;11.15;6.47;;;;;;;;;;5062087;28;20059;-78
2023/05/17 04:01:00;;;;;;;10.82;6.30;;;;;;;;;;5062629;28;20035;-78
2023/05/17 04:03:26;;;;;;;10.48;6.65;;;;;;;;;;5056748;28;20111;-76
2023/05/17 04:05:52;;;;;;;12.27;7.03;;;;;;;;;;5059249;28;20382;-76
2023/05/17 04:08:18;;;;;;;14.02;6.60;;;;;;;;;;5053416;28;20493;-78
2023/05/17 04:10:44;;;;;;;11.57;6.22;;;;;;;;;;5063280;28;20029;-77
2023/05/17 04:13:10;;;;;;;11.93;6.47;;;;;;;;;;5059519;28;20035;-76
2023/05/17 04:15:36;;;;;;;10.82;6.75;;;;;;;;;;5058160;28;20052;-77
2023/05/17 04:18:02;;;;;;;11.88;5.93;;;;;;;;;;5063319;28;20434;-76
2023/05/17 04:20:28;;;;;;;9.77;6.13;;;;;;;;;;5068983;28;20141;-78
2023/05/17 04:22:54;;;;;;;13.73;7.93;;;;;;;;;;5066226;28;20052;-77
2023/05/17 04:25:22;;;;;;;12.23;7.25;;;;;;;;;;5068318;28;20024;-77
2023/05/17 04:27:48;;;;;;;12.73;6.95;;;;;;;;;;5062310;28;20143;-76
2023/05/17 04:30:14;;;;;;;15.07;6.75;;;;;;;;;;5064838;28;20024;-76
2023/05/17 04:32:41;;;;;;;10.18;6.60;;;;;;;;;;5065006;28;20020;-77
2023/05/17 04:35:08;;;;;;;12.52;6.93;;;;;;;;;;5064003;28;20519;-77
2023/05/17 04:37:38;;;;;;;11.35;6.25;;;;;;;;;;5067050;28;20054;-77
2023/05/17 04:40:05;;;;;;;9.20;6.55;;;;;;;;;;5066486;28;20031;-77
2023/05/17 04:42:31;;;;;;;12.18;6.10;;;;;;;;;;5066847;28;20449;-77
2023/05/17 04:44:58;;;;;;;11.95;6.70;;;;;;;;;;5059175;28;20880;-77
2023/05/17 04:47:24;;;;;;;13.85;5.80;;;;;;;;;;5057742;28;20090;-77
2023/05/17 04:49:50;;;;;;;12.05;6.47;;;;;;;;;;5067147;28;20051;-77
2023/05/17 04:52:17;;;;;;;12.70;7.05;;;;;;;;;;5066538;28;20035;-77
2023/05/17 04:54:43;;;;;;;11.95;7.20;;;;;;;;;;5063012;28;20103;-77
2023/05/17 04:57:09;;;;;;;11.18;6.50;;;;;;;;;;5059826;28;20047;-77
2023/05/17 04:59:35;;;;;;;12.40;6.00;;;;;;;;;;5063797;28;20108;-77
2023/05/17 05:02:01;;;;;;;10.93;5.80;;;;;;;;;;5061386;28;20094;-78
2023/05/17 05:04:27;;;;;;;12.13;6.57;;;;;;;;;;5063325;28;20028;-77
2023/05/17 05:06:53;;;;;;;11.25;6.43;;;;;;;;;;5064344;28;20024;-77
2023/05/17 05:09:20;;;;;;;10.88;6.65;;;;;;;;;;5078176;28;20016;-76
2023/05/17 05:11:46;;;;;;;13.70;6.05;;;;;;;;;;5053195;28;20028;-77
2023/05/17 05:14:12;;;;;;;10.15;6.25;;;;;;;;;;5063655;28;20021;-77
2023/05/17 05:16:38;;;;;;;10.38;6.80;;;;;;;;;;5066714;28;20055;-76
2023/05/17 05:19:05;;;;;;;11.50;7.05;;;;;;;;;;5062974;28;20028;-76
2023/05/17 05:21:36;;;;;;;10.05;6.95;;;;;;;;;;5065601;28;20024;-76
2023/05/17 05:24:03;;;;;;;12.70;7.35;;;;;;;;;;5066281;28;20056;-77
2023/05/17 05:26:29;;;;;;;10.82;6.55;;;;;;;;;;5062586;28;20020;-76
2023/05/17 05:28:55;;;;;;;11.57;6.93;;;;;;;;;;5062240;28;20031;-76
2023/05/17 05:31:21;;;;;;;13.05;7.60;;;;;;;;;;5065277;28;20036;-78
2023/05/17 05:33:51;;;;;;;14.43;6.53;;;;;;;;;;5060320;28;20035;-77
2023/05/17 05:36:17;;;;;;;10.00;6.70;;;;;;;;;;5065377;28;20043;-77
2023/05/17 05:38:44;;;;;;;11.30;7.70;;;;;;;;;;5061136;28;20115;-77
2023/05/17 05:41:10;;;;;;;11.75;7.55;;;;;;;;;;5061143;28;20025;-78
2023/05/17 05:43:36;;;;;;;14.48;7.18;;;;;;;;;;5062193;28;20036;-76
2023/05/17 05:46:03;;;;;;;9.50;6.38;;;;;;;;;;5065308;28;20493;-79
2023/05/17 05:48:29;;;;;;;9.85;6.18;;;;;;;;;;5061745;28;20094;-77
2023/05/17 05:50:55;;;;;;;10.43;5.90;;;;;;;;;;5063243;28;20024;-77
2023/05/17 05:53:21;;;;;;;9.93;6.47;;;;;;;;;;5064097;28;20028;-76
2023/05/17 05:55:48;;;;;;;10.90;6.70;;;;;;;;;;5064429;28;20132;-78
2023/05/17 05:58:14;;;;;;;9.95;6.78;;;;;;;;;;5057724;28;20043;-77
2023/05/17 06:00:41;;;;;;;10.77;5.90;;;;;;;;;;5059777;28;20031;-79
2023/05/17 06:03:07;;;;;;;12.07;6.50;;;;;;;;;;5065059;28;20071;-77
2023/05/17 06:05:33;;;;;;;10.32;6.82;;;;;;;;;;5059940;28;20458;-77
2023/05/17 06:07:59;;;;;;;10.55;6.60;;;;;;;;;;5063757;28;20372;-77
2023/05/17 06:10:25;;;;;;;12.57;6.78;;;;;;;;;;5057274;28;20098;-77
2023/05/17 06:12:52;;;;;;;10.48;6.65;;;;;;;;;;5064994;28;20016;-77
2023/05/17 06:15:18;;;;;;;12.95;6.43;;;;;;;;;;5064667;28;20576;-77
2023/05/17 06:17:44;;;;;;;11.63;6.43;;;;;;;;;;5063038;28;20029;-78
2023/05/17 06:20:10;;;;;;;12.98;7.60;;;;;;;;;;5068174;28;20406;-78
2023/05/17 06:22:36;;;;;;;11.85;6.95;;;;;;;;;;5059120;28;20167;-78
2023/05/17 06:25:02;;;;;;;10.15;6.18;;;;;;;;;;5065972;28;20033;-76
2023/05/17 06:27:31;;;;;;;11.80;6.75;;;;;;;;;;5059933;28;20385;-77
2023/05/17 06:29:57;;;;;;;10.63;6.70;;;;;;;;;;5059722;28;20016;-77
2023/05/17 06:32:23;;;;;;;14.10;7.40;;;;;;;;;;5063886;28;20039;-77
2023/05/17 06:34:49;;;;;;;10.35;7.03;;;;;;;;;;5065629;28;20036;-78
2023/05/17 06:37:16;;;;;;;9.50;6.88;;;;;;;;;;5078424;28;20489;-76
2023/05/17 06:39:42;;;;;;;13.85;6.65;;;;;;;;;;5064039;28;20032;-77
2023/05/17 06:42:08;;;;;;;10.02;5.50;;;;;;;;;;5064356;28;20032;-77
2023/05/17 06:44:34;;;;;;;10.32;6.30;;;;;;;;;;5082863;28;20512;-78
2023/05/17 06:47:04;;;;;;;15.45;7.55;;;;;;;;;;5070003;28;20029;-78
2023/05/17 06:49:31;;;;;;;10.65;6.03;;;;;;;;;;5065094;28;20160;-76
2023/05/17 06:52:02;;;;;;;8.23;5.43;;;;;;;;;;5063552;28;20562;-76
2023/05/17 06:54:32;;;;;;;12.82;6.15;;;;;;;;;;5066228;28;20139;-77
2023/05/17 06:57:02;;;;;;;12.73;6.68;;;;;;;;;;5058989;28;20058;-78
2023/05/17 06:59:28;;;;;;;11.57;6.85;;;;;;;;;;5068320;28;20415;-78
2023/05/17 07:01:55;;;;;;;11.23;5.70;;;;;;;;;;5063457;28;20386;-77
2023/05/17 07:04:21;;;;;;;12.50;5.78;;;;;;;;;;5063756;28;20031;-77
2023/05/17 07:06:47;;;;;;;9.95;5.43;;;;;;;;;;5066673;28;20032;-76
2023/05/17 07:09:13;;;;;;;10.57;6.45;;;;;;;;;;5067409;28;20223;-77
2023/05/17 07:11:40;;;;;;;11.55;5.80;;;;;;;;;;5062089;28;20032;-77
2023/05/17 07:14:06;;;;;;;10.18;5.43;;;;;;;;;;5063349;28;20048;-78
2023/05/17 07:16:32;;;;;;;10.73;6.07;;;;;;;;;;5083698;28;20075;-77
2023/05/17 07:18:59;;;;;;;11.27;5.53;;;;;;;;;;5069951;28;20021;-78
2023/05/17 07:21:25;;;;;;;13.23;6.85;;;;;;;;;;5063536;28;20040;-77
2023/05/17 07:23:52;;;;;;;11.38;5.25;;;;;;;;;;5074143;28;20367;-78
2023/05/17 07:26:19;;;;;;;8.43;5.32;;;;;;;;;;5064593;28;20039;-79
2023/05/17 07:28:45;;;;;;;8.68;5.03;;;;;;;;;;5054109;28;20028;-74
2023/05/17 07:31:12;;;;;;;9.73;6.32;;;;;;;;;;5073475;28;20494;-77
2023/05/17 07:33:38;;;;;;;9.48;5.88;;;;;;;;;;5057000;28;20024;-78
2023/05/17 07:36:05;;;;;;;7.85;5.60;;;;;;;;;;5053926;28;20040;-77
2023/05/17 07:38:34;;;;;;;11.38;5.75;;;;;;;;;;5055953;28;20127;-77
2023/05/17 07:41:01;;;;;;;11.50;7.13;;;;;;;;;;5054461;28;20494;-77
2023/05/17 07:43:27;;;;;;;8.88;6.20;;;;;;;;;;5060562;28;20035;-78
2023/05/17 07:45:53;;;;;;;9.55;6.13;;;;;;;;;;5056378;28;20032;-77
2023/05/17 07:48:19;;;;;;;11.23;5.85;;;;;;;;;;5065907;28;20028;-77
2023/05/17 07:50:48;;;;;;;12.50;6.72;;;;;;;;;;5061043;28;20099;-78
2023/05/17 07:53:15;;;;;;;10.88;6.18;;;;;;;;;;5083807;28;20494;-79
2023/05/17 07:55:42;;;;;;;8.88;5.95;;;;;;;;;;5059464;28;20029;-77
2023/05/17 07:58:10;;;;;;;11.80;5.95;;;;;;;;;;5059339;28;20028;-76
2023/05/17 08:00:36;;;;;;;13.82;7.10;;;;;;;;;;5053065;28;20029;-77
2023/05/17 08:03:02;;;;;;;13.60;6.60;;;;;;;;;;5059403;28;20792;-76
2023/05/17 08:05:29;;;;;;;9.40;6.40;;;;;;;;;;5054751;28;20118;-78
2023/05/17 08:07:58;;;;;;;16.05;6.32;;;;;;;;;;5058912;28;20494;-77
2023/05/17 08:10:25;;;;;;;11.63;6.63;;;;;;;;;;5059056;28;20106;-78
2023/05/17 08:12:52;;;;;;;11.15;6.32;;;;;;;;;;5062478;28;20112;-77
2023/05/17 08:15:18;;;;;;;14.48;6.43;;;;;;;;;;5051874;28;20137;-77
2023/05/17 08:17:44;;;;;;;9.27;6.18;;;;;;;;;;5058678;28;20032;-76
2023/05/17 08:20:10;;;;;;;8.80;5.65;;;;;;;;;;5056419;28;20041;-77
2023/05/17 08:22:36;;;;;;;11.98;5.97;;;;;;;;;;5063253;28;20041;-77
2023/05/17 08:25:03;;;;;;;13.30;6.78;;;;;;;;;;5069867;28;20063;-77
2023/05/17 08:27:31;;;;;;;8.80;5.75;;;;;;;;;;5065052;28;20040;-77
2023/05/17 08:29:58;;;;;;;10.82;6.47;;;;;;;;;;5057668;28;20025;-78
2023/05/17 08:32:24;;;;;;;10.63;5.85;;;;;;;;;;5073440;28;20489;-78
2023/05/17 08:34:51;;;;;;;9.07;6.03;;;;;;;;;;5057963;28;20056;-81
2023/05/17 08:37:20;;;;;;;13.05;6.40;;;;;;;;;;5058161;28;20075;-77
2023/05/17 08:39:48;;;;;;;10.93;5.72;;;;;;;;;;5060677;28;20164;-77
2023/05/17 08:42:14;;;;;;;13.23;6.82;;;;;;;;;;5065416;28;20028;-78
2023/05/17 08:44:40;;;;;;;11.95;6.35;;;;;;;;;;5060140;28;20060;-78
2023/05/17 08:47:10;;;;;;;10.40;5.30;;;;;;;;;;5060968;28;20031;-78
2023/05/17 08:49:37;;;;;;;8.57;5.45;;;;;;;;;;5058167;28;20033;-78
2023/05/17 08:52:08;;;;;;;11.98;5.50;;;;;;;;;;5058801;28;20017;-77
2023/05/17 08:54:35;;;;;;;10.55;5.22;;;;;;;;;;5075115;28;20119;-77
2023/05/17 08:57:05;;;;;;;11.90;6.07;;;;;;;;;;5060676;28;20031;-77
2023/05/17 08:59:33;;;;;;;12.05;5.35;;;;;;;;;;5065573;28;20024;-78
2023/05/17 09:02:00;;;;;;;7.65;4.72;;;;;;;;;;5053608;28;20032;-76
2023/05/17 09:04:26;;;;;;;10.85;5.40;;;;;;;;;;5056502;28;20607;-74
2023/05/17 09:06:52;;;;;;;11.13;4.75;;;;;;;;;;5064097;28;20493;-77
2023/05/17 09:09:19;;;;;;;10.35;5.28;;;;;;;;;;5064618;28;20147;-77
2023/05/17 09:11:45;;;;;;;9.98;4.97;;;;;;;;;;5062440;28;20029;-77
2023/05/17 09:14:11;;;;;;;7.95;5.00;;;;;;;;;;5069716;28;20021;-77
2023/05/17 09:16:37;;;;;;;7.10;5.45;;;;;;;;;;5068144;28;20029;-78
2023/05/17 09:19:05;;;;;;;10.23;5.57;;;;;;;;;;5064205;28;20555;-76
2023/05/17 09:21:31;;;;;;;8.85;5.45;;;;;;;;;;5061064;28;20119;-76
2023/05/17 09:24:00;;;;;;;6.57;4.47;;;;;;;;;;5065516;28;21181;-77
2023/05/17 09:26:26;;;;;;;8.65;4.43;;;;;;;;;;5066830;28;20378;-78
2023/05/17 09:28:52;;;;;;;8.50;5.32;;;;;;;;;;5066056;28;20116;-77
2023/05/17 09:31:18;;;;;;;7.75;5.10;;;;;;;;;;5062219;28;20176;-76
2023/05/17 09:33:45;;;;;;;8.85;5.07;;;;;;;;;;5062916;28;20080;-76
2023/05/17 09:36:30;;;;;;;9.00;5.30;;;;;;;;;;5058830;28;20024;-76
2023/05/17 09:38:58;;;;;;;11.27;5.50;;;;;;;;;;5064572;28;20275;-77
2023/05/17 09:41:30;;;;;;;12.05;5.00;;;;;;;;;;5068965;28;20079;-76
2023/05/17 09:44:00;;;;;;;8.60;4.68;;;;;;;;;;5060828;28;20573;-76
2023/05/17 09:46:27;;;;;;;11.50;5.13;;;;;;;;;;5056965;28;20686;-75
2023/05/17 09:48:55;;;;;;;7.82;4.38;;;;;;;;;;5065637;28;20050;-75
2023/05/17 09:51:31;;;;;;;7.25;4.43;;;;;;;;;;5057193;28;20024;-77
2023/05/17 09:53:57;;;;;;;8.75;4.68;;;;;;;;;;5058157;28;20039;-76
2023/05/17 09:56:27;;;;;;;6.82;4.70;;;;;;;;;;5055796;28;20487;-76
2023/05/17 09:58:53;;;;;;;8.23;4.25;;;;;;;;;;5056936;28;20016;-77
2023/05/17 10:01:19;;;;;;;8.75;4.53;;;;;;;;;;5066620;28;20103;-76
2023/05/17 10:03:45;;;;;;;10.43;5.80;;;;;;;;;;5069320;28;20086;-77
2023/05/17 10:06:14;;;;;;;7.40;4.47;;;;;;;;;;5063293;28;20033;-77
2023/05/17 10:08:43;;;;;;;9.10;4.72;;;;;;;;;;5067064;28;20255;-77
2023/05/17 10:11:09;;;;;;;8.10;4.15;;;;;;;;;;5058961;28;20028;-77
2023/05/17 10:13:41;;;;;;;8.32;4.65;;;;;;;;;;5062136;28;20064;-75
2023/05/17 10:16:10;;;;;;;9.20;4.90;;;;;;;;;;5062718;28;20037;-76
2023/05/17 10:18:38;;;;;;;8.40;4.32;;;;;;;;;;5065675;28;20020;-77
2023/05/17 10:21:06;;;;;;;9.32;4.03;;;;;;;;;;5055003;28;20547;-76
2023/05/17 10:23:33;;;;;;;8.07;4.90;;;;;;;;;;5049421;28;20025;-76
2023/05/17 10:25:59;;;;;;;8.80;5.35;;;;;;;;;;5053329;28;20032;-76
2023/05/17 10:28:27;;;;;;;8.18;3.67;;;;;;;;;;5055367;28;20060;-75
2023/05/17 10:30:53;;;;;;;6.40;4.05;;;;;;;;;;5050146;28;20031;-79
2023/05/17 10:33:23;;;;;;;8.68;4.13;;;;;;;;;;5065359;28;20028;-76
2023/05/17 10:35:50;;;;;;;12.32;4.75;;;;;;;;;;5070038;28;20035;-78
2023/05/17 10:38:17;;;;;;;7.97;4.20;;;;;;;;;;5069900;28;20028;-76
2023/05/17 10:40:44;;;;;;;9.23;4.32;;;;;;;;;;5067935;28;20102;-77
2023/05/17 10:43:11;;;;;;;8.20;4.72;;;;;;;;;;5063666;28;20137;-79
2023/05/17 10:45:37;;;;;;;8.30;4.72;;;;;;;;;;5062728;28;20033;-76
2023/05/17 10:48:07;;;;;;;7.57;4.50;;;;;;;;;;5061281;28;20032;-77
2023/05/17 10:50:33;;;;;;;7.97;4.93;;;;;;;;;;5064665;28;20044;-78
2023/05/17 10:52:59;;;;;;;7.88;5.07;;;;;;;;;;5060974;28;20044;-77
2023/05/17 10:55:42;;;;;;;7.57;4.22;;;;;;;;;;5062653;28;20044;-77
2023/05/17 10:58:15;;;;;;;8.95;4.68;;;;;;;;;;5063829;28;20028;-78
2023/05/17 11:00:43;;;;;;;6.00;4.07;;;;;;;;;;5058183;28;20186;-80
2023/05/17 11:03:15;;;;;;;11.32;4.40;;;;;;;;;;5065236;28;20024;-80
2023/05/17 11:05:43;;;;;;;6.32;4.00;;;;;;;;;;5057844;28;20047;-76
2023/05/17 11:08:16;;;;;;;8.38;4.50;;;;;;;;;;5061216;28;20025;-78
2023/05/17 11:11:01;;;;;;;7.78;4.18;;;;;;;;;;5064311;28;21320;-75
2023/05/17 11:13:31;;;;;;;7.28;4.30;;;;;;;;;;5061407;28;20043;-76
2023/05/17 11:16:08;;;;;;;8.52;4.60;;;;;;;;;;5067691;28;20025;-79
2023/05/17 11:18:50;;;;;;;8.65;5.07;;;;;;;;;;5062612;28;20494;-77
2023/05/17 11:21:17;;;;;;;7.72;4.57;;;;;;;;;;5064108;28;20036;-77
2023/05/17 11:23:47;;;;;;;7.97;4.57;;;;;;;;;;5064789;28;20072;-80
2023/05/17 11:26:28;;;;;;;8.43;4.22;;;;;;;;;;5064185;28;20444;-79
2023/05/17 11:29:01;;;;;;;7.50;4.38;;;;;;;;;;5060030;28;20028;-79
2023/05/17 11:31:32;;;;;;;8.68;4.45;;;;;;;;;;5070063;28;20442;-79
2023/05/17 11:34:01;;;;;;;8.57;4.68;;;;;;;;;;5059274;28;20028;-78
2023/05/17 11:36:27;;;;;;;7.75;4.55;;;;;;;;;;5063646;28;20036;-80
2023/05/17 11:39:13;;;;;;;8.52;4.53;;;;;;;;;;5062121;28;20034;-77
2023/05/17 11:41:40;;;;;;;9.52;5.18;;;;;;;;;;5062686;28;20102;-78
2023/05/17 11:44:08;;;;;;;8.52;5.07;;;;;;;;;;5059958;28;20024;-80
2023/05/17 11:46:37;;;;;;;10.02;4.90;;;;;;;;;;5075204;28;20440;-80
2023/05/17 11:49:06;;;;;;;10.48;4.97;;;;;;;;;;5059022;28;20016;-79
2023/05/17 11:51:32;;;;;;;5.80;4.05;;;;;;;;;;5055891;28;20029;-80
2023/05/17 11:54:02;;;;;;;9.52;4.38;;;;;;;;;;5061363;28;20098;-78
2023/05/17 11:56:28;;;;;;;11.32;4.75;;;;;;;;;;5058396;28;20127;-78
2023/05/17 11:58:55;;;;;;;9.20;5.40;;;;;;;;;;5056721;28;20035;-79
2023/05/17 12:01:21;;;;;;;6.78;4.40;;;;;;;;;;5057675;28;20102;-80
2023/05/17 12:03:55;;;;;;;7.65;4.78;;;;;;;;;;5059658;28;20032;-80
2023/05/17 12:06:21;;;;;;;7.45;5.20;;;;;;;;;;5059283;28;20044;-78
2023/05/17 12:08:47;;;;;;;10.63;4.72;;;;;;;;;;5055494;28;20052;-76
2023/05/17 12:11:17;;;;;;;12.98;5.32;;;;;;;;;;5057339;28;20056;-82
2023/05/17 12:13:45;;;;;;;6.63;4.45;;;;;;;;;;5061016;28;20020;-80
2023/05/17 12:16:15;;;;;;;8.50;5.45;;;;;;;;;;5057846;28;20025;-79
2023/05/17 12:18:42;;;;;;;9.82;5.80;;;;;;;;;;5061520;28;20054;-79
2023/05/17 12:21:09;;;;;;;8.80;5.15;;;;;;;;;;5057332;28;20024;-78
2023/05/17 12:23:36;;;;;;;7.53;5.28;;;;;;;;;;5058734;28;20036;-81
2023/05/17 12:26:02;;;;;;;9.73;5.22;;;;;;;;;;5058356;28;20936;-79
2023/05/17 12:28:28;;;;;;;8.73;5.18;;;;;;;;;;5060169;28;20056;-79
2023/05/17 12:30:57;;;;;;;6.40;4.80;;;;;;;;;;5056499;28;20147;-81
2023/05/17 12:33:24;;;;;;;6.82;5.05;;;;;;;;;;5051579;28;20092;-80
2023/05/17 12:35:50;;;;;;;6.07;4.82;;;;;;;;;;5053161;28;20815;-78
2023/05/17 12:38:17;;;;;;;8.13;5.68;;;;;;;;;;5054023;28;21325;-81
2023/05/17 12:40:43;;;;;;;7.18;5.00;;;;;;;;;;5054070;28;20029;-78
2023/05/17 12:43:09;;;;;;;10.40;5.60;;;;;;;;;;5058382;28;20029;-78
2023/05/17 12:45:35;;;;;;;7.60;4.97;;;;;;;;;;5060826;28;20097;-80
2023/05/17 12:48:01;;;;;;;10.02;5.22;;;;;;;;;;5056314;28;20154;-78
2023/05/17 12:50:31;;;;;;;8.02;5.05;;;;;;;;;;5061864;28;20044;-79
2023/05/17 12:52:57;;;;;;;10.55;5.47;;;;;;;;;;5054652;28;20540;-78
2023/05/17 12:55:25;;;;;;;6.88;5.35;;;;;;;;;;5060159;28;20458;-81
2023/05/17 12:57:52;;;;;;;6.95;4.82;;;;;;;;;;5058144;28;20020;-79
2023/05/17 13:00:18;;;;;;;7.35;4.68;;;;;;;;;;5057036;28;20411;-80
2023/05/17 13:02:44;;;;;;;8.60;5.43;;;;;;;;;;5056850;28;20043;-78
2023/05/17 13:05:15;;;;;;;8.80;6.25;;;;;;;;;;5057696;28;20063;-79
2023/05/17 13:07:41;;;;;;;9.20;4.85;;;;;;;;;;5057560;28;20082;-77
2023/05/17 13:10:19;;;;;;;9.43;5.53;;;;;;;;;;5053279;28;20052;-77
2023/05/17 13:12:55;;;;;;;9.60;5.80;;;;;;;;;;5061009;28;20482;-77
2023/05/17 13:15:26;;;;;;;8.27;5.80;;;;;;;;;;5062155;28;20485;-77
2023/05/17 13:17:52;;;;;;;9.82;5.80;;;;;;;;;;5062520;28;20029;-79
2023/05/17 13:20:21;;;;;;;6.63;4.75;;;;;;;;;;5060162;28;20036;-77
2023/05/17 13:22:49;;;;;;;6.05;4.57;;;;;;;;;;5060337;28;20044;-76
2023/05/17 13:25:15;;;;;;;7.93;5.30;;;;;;;;;;5051208;28;20131;-77
2023/05/17 13:27:45;;;;;;;8.05;5.47;;;;;;;;;;5059148;28;20037;-78
2023/05/17 13:30:12;;;;;;;11.50;5.40;;;;;;;;;;5057869;28;20170;-81
2023/05/17 13:32:38;;;;;;;7.30;5.75;;;;;;;;;;5055570;28;20051;-77
2023/05/17 13:35:04;;;;;;;8.73;5.70;;;;;;;;;;5059192;28;20120;-78
2023/05/17 13:37:30;;;;;;;8.68;5.97;;;;;;;;;;5056351;28;20033;-77
2023/05/17 13:39:56;;;;;;;6.45;5.03;;;;;;;;;;5061054;28;20541;-77
2023/05/17 13:42:23;;;;;;;8.02;5.07;;;;;;;;;;5056777;28;20032;-77
2023/05/17 13:44:49;;;;;;;7.50;5.55;;;;;;;;;;5067139;28;20024;-80
2023/05/17 13:47:15;;;;;;;7.75;5.13;;;;;;;;;;5056330;28;20033;-78
2023/05/17 13:49:41;;;;;;;7.07;5.35;;;;;;;;;;5056030;28;20415;-77
2023/05/17 13:52:08;;;;;;;10.45;5.25;;;;;;;;;;5058356;28;20462;-77
2023/05/17 13:54:35;;;;;;;9.00;5.45;;;;;;;;;;5058206;28;20025;-78
2023/05/17 13:57:01;;;;;;;8.50;5.22;;;;;;;;;;5060762;28;20512;-78
2023/05/17 13:59:27;;;;;;;7.65;4.72;;;;;;;;;;5058383;28;20028;-78
2023/05/17 14:01:53;;;;;;;8.48;4.82;;;;;;;;;;5059390;28;20032;-78
2023/05/17 14:04:20;;;;;;;8.23;4.70;;;;;;;;;;5057195;28;20043;-77
2023/05/17 14:06:46;;;;;;;10.18;5.50;;;;;;;;;;5054981;28;20031;-77
2023/05/17 14:09:13;;;;;;;10.93;5.60;;;;;;;;;;5059423;28;20164;-77
2023/05/17 14:11:39;;;;;;;7.55;5.45;;;;;;;;;;5054420;28;21315;-77
2023/05/17 14:14:05;;;;;;;6.97;4.82;;;;;;;;;;5061620;28;20028;-78
2023/05/17 14:16:31;;;;;;;9.23;5.15;;;;;;;;;;5053920;28;20127;-77
2023/05/17 14:18:58;;;;;;;7.22;5.03;;;;;;;;;;5057849;28;20028;-80
2023/05/17 14:21:24;;;;;;;9.85;5.00;;;;;;;;;;5056347;28;20137;-77
2023/05/17 14:23:50;;;;;;;9.57;4.82;;;;;;;;;;5056075;28;20482;-78
2023/05/17 14:26:16;;;;;;;11.02;5.90;;;;;;;;;;5055248;28;20031;-77
2023/05/17 14:28:43;;;;;;;9.32;5.70;;;;;;;;;;5059812;28;20048;-80
2023/05/17 14:31:13;;;;;;;8.27;5.40;;;;;;;;;;5062573;28;20474;-78
2023/05/17 14:33:40;;;;;;;8.27;4.97;;;;;;;;;;5056865;28;20024;-77
2023/05/17 14:36:06;;;;;;;8.50;4.93;;;;;;;;;;5063246;28;20033;-77
2023/05/17 14:38:33;;;;;;;10.50;4.97;;;;;;;;;;5055922;28;20063;-77